createdAt,value
2018-09-24T00:02:31.043Z,15.20
2018-09-24T00:05:16.876Z,15.10
2018-09-24T00:42:29.375Z,14.80
2018-09-24T00:45:00.674Z,14.60
2018-09-24T00:47:54.047Z,14.70
2018-09-24T00:50:27.088Z,14.70
2018-09-24T01:10:09.840Z,14.60
2018-09-24T01:13:02.795Z,14.60
2018-09-24T01:15:34.133Z,14.50
2018-09-24T01:18:31.697Z,14.60
2018-09-24T01:21:04.359Z,14.60
2018-09-24T01:24:09.309Z,14.60
2018-09-24T01:27:12.065Z,14.60
2018-09-24T01:32:59.676Z,14.50
2018-09-24T01:38:21.636Z,14.30
2018-09-24T01:41:15.024Z,14.40
2018-09-24T01:44:01.212Z,14.50
2018-09-24T01:46:33.075Z,14.50
2018-09-24T01:49:05.964Z,14.50
2018-09-24T01:51:40.676Z,14.30
2018-09-24T01:54:12.182Z,14.20
2018-09-24T01:59:54.423Z,13.80
2018-09-24T02:02:25.908Z,13.70
2018-09-24T02:04:57.600Z,13.50
2018-09-24T02:07:38.405Z,13.30
2018-09-24T02:10:25.856Z,13.30
2018-09-24T02:16:10.090Z,13.10
2018-09-24T04:28:05.533Z,12.00
2018-09-24T05:08:15.468Z,12.00
2018-09-24T05:10:51.284Z,12.20
2018-09-24T05:16:50.673Z,12.30
2018-09-24T05:19:25.763Z,12.40
2018-09-24T05:22:26.077Z,12.50
2018-09-24T05:25:00.969Z,12.50
2018-09-24T05:27:35.918Z,12.60
2018-09-24T05:30:10.852Z,12.50
2018-09-24T05:32:47.744Z,12.50
2018-09-24T05:35:23.403Z,12.50
2018-09-24T05:37:59.438Z,12.50
2018-09-24T05:40:34.337Z,12.50
2018-09-24T05:43:09.331Z,12.50
2018-09-24T05:45:45.054Z,12.50
2018-09-24T05:48:21.261Z,12.50
2018-09-24T05:50:57.186Z,12.50
2018-09-24T05:53:32.077Z,12.60
2018-09-24T05:56:06.969Z,12.60
2018-09-24T05:58:41.777Z,12.70
2018-09-24T06:01:16.640Z,12.70
2018-09-24T06:03:51.680Z,12.70
2018-09-24T06:06:27.309Z,12.70
2018-09-24T06:09:03.937Z,12.60
2018-09-24T06:11:39.185Z,12.50
2018-09-24T06:14:15.140Z,12.50
2018-09-24T06:16:50.888Z,12.40
2018-09-24T06:19:26.933Z,12.40
2018-09-24T06:22:02.131Z,12.00
2018-09-24T06:24:37.041Z,12.00
2018-09-24T06:27:13.051Z,12.10
2018-09-24T06:29:47.764Z,12.40
2018-09-24T06:32:23.509Z,12.60
2018-09-24T06:38:07.988Z,14.40
2018-09-24T06:40:42.041Z,16.90
2018-09-24T06:43:44.903Z,18.70
2018-09-24T06:46:19.972Z,18.90
2018-09-24T06:48:55.288Z,19.70
2018-09-24T06:51:30.425Z,19.60
2018-09-24T06:54:04.373Z,20.00
2018-09-24T06:56:38.303Z,21.10
2018-09-24T06:59:13.133Z,21.30
2018-09-24T07:01:48.963Z,20.60
2018-09-24T07:04:24.134Z,20.00
2018-09-24T07:06:58.052Z,20.40
2018-09-24T07:09:32.016Z,21.10
2018-09-24T07:12:05.831Z,21.70
2018-09-24T07:14:39.838Z,22.90
2018-09-24T07:17:13.871Z,23.00
2018-09-24T07:19:48.508Z,23.00
2018-09-24T07:22:22.410Z,23.60
2018-09-24T07:24:56.188Z,24.30
2018-09-24T07:27:30.164Z,24.80
2018-09-24T07:30:04.211Z,24.90
2018-09-24T07:32:38.183Z,24.20
2018-09-24T07:35:13.521Z,24.80
2018-09-24T07:37:48.683Z,25.50
2018-09-24T07:40:24.227Z,24.00
2018-09-24T07:43:00.205Z,23.10
2018-09-24T07:45:36.281Z,23.20
2018-09-24T07:48:14.024Z,23.10
2018-09-24T07:50:50.951Z,21.80
2018-09-24T07:53:26.732Z,20.50
2018-09-24T07:56:02.865Z,19.70
2018-09-24T07:58:38.555Z,18.90
2018-09-24T08:01:13.852Z,17.70
2018-09-24T08:03:48.745Z,16.80
2018-09-24T08:06:23.600Z,16.10
2018-09-24T08:08:59.209Z,15.70
2018-09-24T08:11:35.358Z,15.40
2018-09-24T08:14:10.143Z,15.60
2018-09-24T08:16:46.222Z,15.30
2018-09-24T08:19:21.875Z,15.40
2018-09-24T08:21:57.106Z,15.10
2018-09-24T08:24:36.760Z,15.30
2018-09-24T08:27:12.556Z,16.90
2018-09-24T08:29:48.964Z,19.70
2018-09-24T08:32:32.400Z,20.60
2018-09-24T08:35:11.771Z,20.50
2018-09-24T08:37:47.496Z,19.80
2018-09-24T08:40:23.565Z,19.30
2018-09-24T08:43:01.496Z,18.70
2018-09-24T08:45:41.166Z,19.10
2018-09-24T08:48:18.285Z,19.20
2018-09-24T08:50:53.280Z,19.80
2018-09-24T08:53:34.110Z,20.90
2018-09-24T08:56:14.419Z,20.20
2018-09-24T08:58:50.053Z,20.30
2018-09-24T09:01:30.728Z,19.80
2018-09-24T09:04:06.532Z,19.50
2018-09-24T09:06:41.767Z,21.90
2018-09-24T09:09:18.548Z,23.40
2018-09-24T09:11:53.477Z,22.90
2018-09-24T09:14:28.501Z,23.50
2018-09-24T09:17:08.817Z,25.00
2018-09-24T09:19:45.388Z,25.30
2018-09-24T09:22:21.203Z,25.90
2018-09-24T09:24:56.270Z,25.60
2018-09-24T09:27:31.397Z,26.10
2018-09-24T09:30:07.717Z,25.20
2018-09-24T09:32:43.671Z,25.20
2018-09-24T09:35:18.828Z,25.80
2018-09-24T09:37:55.341Z,25.20
2018-09-24T09:40:30.554Z,25.30
2018-09-24T09:43:07.123Z,25.00
2018-09-24T09:45:42.341Z,25.00
2018-09-24T09:48:17.080Z,26.00
2018-09-24T09:50:52.909Z,26.10
2018-09-24T09:53:28.707Z,27.70
2018-09-24T09:56:03.950Z,27.00
2018-09-24T09:58:38.885Z,26.40
2018-09-24T10:01:15.379Z,26.60
2018-09-24T10:03:51.403Z,26.50
2018-09-24T10:06:26.531Z,23.60
2018-09-24T10:09:01.367Z,22.40
2018-09-24T10:11:36.194Z,23.10
2018-09-24T10:14:11.231Z,22.90
2018-09-24T10:16:48.814Z,21.30
2018-09-24T10:22:15.100Z,20.50
2018-09-24T10:24:50.151Z,22.10
2018-09-24T10:30:19.167Z,19.30
2018-09-24T10:32:55.644Z,18.50
2018-09-24T10:35:30.971Z,17.80
2018-09-24T10:40:48.917Z,18.60
2018-09-24T10:43:25.575Z,18.20
2018-09-24T10:46:00.738Z,18.10
2018-09-24T10:48:37.991Z,20.00
2018-09-24T10:51:13.469Z,21.20
2018-09-24T10:53:49.328Z,20.30
2018-09-24T10:56:26.059Z,20.70
2018-09-24T10:59:03.809Z,23.00
2018-09-24T11:01:39.169Z,24.40
2018-09-24T11:04:21.903Z,23.70
2018-09-24T11:07:07.374Z,23.50
2018-09-24T11:09:45.085Z,22.90
2018-09-24T11:12:20.019Z,23.60
2018-09-24T11:14:58.095Z,25.10
2018-09-24T11:17:39.492Z,25.30
2018-09-24T11:20:17.333Z,26.10
2018-09-24T11:22:52.776Z,24.90
2018-09-24T11:25:29.711Z,24.20
2018-09-24T11:28:07.068Z,24.00
2018-09-24T11:30:44.943Z,24.30
2018-09-24T11:33:19.467Z,25.20
2018-09-24T11:35:54.370Z,26.10
2018-09-24T11:38:35.209Z,25.30
2018-09-24T11:41:10.256Z,24.20
2018-09-24T11:43:45.116Z,22.00
2018-09-24T11:46:21.346Z,21.50
2018-09-24T11:48:57.809Z,22.00
2018-09-24T11:51:33.881Z,23.30
2018-09-24T11:54:09.806Z,23.70
2018-09-24T11:56:46.681Z,24.70
2018-09-24T11:59:23.332Z,24.10
2018-09-24T12:01:58.542Z,24.80
2018-09-24T12:04:35.440Z,25.20
2018-09-24T12:07:11.056Z,25.50
2018-09-24T12:09:56.799Z,24.00
2018-09-24T12:12:33.141Z,23.00
2018-09-24T12:23:57.530Z,19.40
2018-09-24T12:30:49.834Z,22.80
2018-09-24T12:33:26.804Z,22.80
2018-09-24T12:36:02.086Z,22.30
2018-09-24T12:38:38.647Z,23.00
2018-09-24T12:41:39.840Z,23.80
2018-09-24T12:47:48.918Z,24.50
2018-09-24T13:11:37.746Z,18.50
2018-09-24T13:23:11.415Z,16.60
2018-09-24T13:29:33.343Z,16.80
2018-09-24T13:32:49.096Z,16.10
2018-09-24T13:42:01.173Z,18.30
2018-09-24T13:56:25.773Z,20.30
2018-09-24T13:59:04.720Z,19.60
2018-09-24T14:04:47.926Z,17.60
2018-09-24T14:14:01.915Z,17.80
2018-09-24T14:19:36.236Z,16.70
2018-09-24T14:22:12.017Z,17.40
2018-09-24T14:24:46.906Z,17.90
2018-09-24T14:27:22.617Z,17.70
2018-09-24T14:29:58.432Z,18.00
2018-09-24T14:32:34.432Z,18.00
2018-09-24T14:35:10.436Z,17.50
2018-09-24T14:37:45.623Z,17.10
2018-09-24T14:40:22.025Z,16.90
2018-09-24T14:42:58.124Z,16.50
2018-09-24T14:45:34.024Z,16.60
2018-09-24T14:48:09.097Z,16.80
2018-09-24T14:50:44.914Z,16.90
2018-09-24T14:53:20.720Z,16.80
2018-09-24T14:55:56.731Z,16.40
2018-09-24T14:58:32.738Z,16.50
2018-09-24T15:01:07.888Z,16.20
2018-09-24T15:03:42.825Z,15.70
2018-09-24T15:06:17.732Z,15.50
2018-09-24T15:08:53.287Z,15.40
2018-09-24T15:11:29.130Z,15.10
2018-09-24T15:14:05.400Z,14.90
2018-09-24T15:16:42.106Z,14.70
2018-09-24T15:19:17.075Z,14.60
2018-09-24T15:21:53.285Z,14.50
2018-09-24T15:24:31.779Z,14.40
2018-09-24T15:27:09.593Z,14.50
2018-09-24T15:29:44.792Z,14.20
2018-09-24T15:32:19.953Z,14.00
2018-09-24T15:34:54.818Z,13.90
2018-09-24T15:37:29.705Z,13.90
2018-09-24T15:40:05.327Z,13.80
2018-09-24T15:42:40.598Z,13.80
2018-09-24T15:45:16.339Z,13.50
2018-09-24T15:47:51.227Z,13.30
2018-09-24T15:50:26.219Z,13.30
2018-09-24T15:53:01.161Z,13.30
2018-09-24T15:55:36.869Z,13.00
2018-09-24T15:58:12.035Z,12.80
2018-09-24T16:00:46.965Z,12.60
2018-09-24T16:03:21.916Z,12.50
2018-09-24T16:05:57.437Z,12.20
2018-09-24T16:08:32.612Z,12.20
2018-09-24T16:11:08.289Z,12.20
2018-09-24T16:13:43.596Z,12.20
2018-09-24T16:16:19.136Z,12.10
2018-09-24T16:18:55.357Z,11.80
2018-09-24T16:21:30.408Z,11.60
2018-09-24T16:24:05.344Z,11.50
2018-09-24T16:26:40.103Z,11.30
2018-09-24T16:29:15.863Z,11.10
2018-09-24T16:31:50.792Z,10.90
2018-09-24T16:34:26.768Z,10.80
2018-09-24T16:37:01.687Z,10.70
2018-09-24T16:39:36.711Z,10.50
2018-09-24T16:42:11.646Z,10.40
2018-09-24T16:44:46.327Z,10.30
2018-09-24T16:47:20.659Z,10.20
2018-09-24T16:49:54.534Z,9.90
2018-09-24T16:52:28.726Z,9.80
2018-09-24T16:55:02.563Z,9.60
2018-09-24T16:57:36.575Z,9.50
2018-09-24T17:00:10.584Z,9.20
2018-09-24T17:02:44.451Z,9.20
2018-09-24T17:05:18.363Z,9.10
2018-09-24T17:07:52.244Z,9.00
2018-09-24T17:10:26.116Z,8.90
2018-09-24T17:13:00.112Z,8.90
2018-09-24T17:15:34.154Z,8.80
2018-09-24T17:18:08.035Z,8.80
2018-09-24T17:20:41.997Z,8.60
2018-09-24T17:23:16.883Z,8.50
2018-09-24T17:25:52.617Z,8.60
2018-09-24T17:28:27.616Z,8.60
2018-09-24T17:31:01.617Z,8.50
2018-09-24T17:33:35.783Z,8.30
2018-09-24T17:36:11.374Z,8.20
2018-09-24T17:38:47.388Z,8.00
2018-09-24T17:41:23.183Z,7.90
2018-09-24T17:43:57.103Z,7.70
2018-09-24T17:46:31.085Z,7.70
2018-09-24T17:49:05.312Z,7.60
2018-09-24T17:51:39.299Z,7.60
2018-09-24T17:54:13.155Z,7.50
2018-09-24T17:56:47.604Z,7.40
2018-09-24T17:59:21.492Z,7.30
2018-09-24T18:01:55.327Z,7.30
2018-09-24T18:04:29.572Z,7.30
2018-09-24T18:07:03.533Z,7.30
2018-09-24T18:09:37.962Z,7.30
2018-09-24T18:12:12.004Z,7.30
2018-09-24T18:14:45.975Z,7.40
2018-09-24T18:17:21.625Z,7.40
2018-09-24T18:19:55.756Z,7.30
2018-09-24T18:22:29.552Z,7.30
2018-09-24T18:25:03.860Z,7.30
2018-09-24T18:27:38.647Z,7.30
2018-09-24T18:30:13.621Z,7.20
2018-09-24T18:32:48.411Z,7.40
2018-09-24T18:35:23.039Z,7.30
2018-09-24T18:37:57.064Z,7.40
2018-09-24T18:40:31.625Z,7.40
2018-09-24T18:43:05.529Z,7.70
2018-09-24T18:45:39.460Z,7.80
2018-09-24T18:48:13.631Z,7.70
2018-09-24T18:50:47.779Z,7.70
2018-09-24T18:53:22.262Z,7.60
2018-09-24T18:55:56.231Z,7.50
2018-09-24T18:58:30.667Z,7.50
2018-09-24T19:01:04.678Z,7.60
2018-09-24T19:03:38.891Z,7.70
2018-09-24T19:06:13.079Z,7.80
2018-09-24T19:08:47.024Z,7.90
2018-09-24T19:11:27.785Z,8.00
2018-09-24T19:14:19.759Z,8.00
2018-09-24T19:16:54.747Z,8.00
2018-09-24T19:19:29.547Z,8.00
2018-09-24T19:22:03.473Z,8.00
2018-09-24T19:24:39.933Z,8.00
2018-09-24T19:27:14.882Z,8.00
2018-09-24T19:29:48.930Z,8.10
2018-09-24T19:32:22.908Z,8.00
2018-09-24T19:34:57.025Z,8.20
2018-09-24T19:37:31.393Z,8.50
2018-09-24T19:40:05.329Z,8.90
2018-09-24T19:42:39.603Z,9.00
2018-09-24T19:45:15.356Z,9.20
2018-09-24T19:47:50.479Z,9.20
2018-09-24T19:50:25.035Z,9.30
2018-09-24T19:52:59.069Z,9.50
2018-09-24T19:55:32.868Z,9.60
2018-09-24T19:58:06.832Z,9.60
2018-09-24T20:00:40.568Z,9.60
2018-09-24T20:03:15.491Z,9.50
2018-09-24T20:05:50.739Z,9.60
2018-09-24T20:08:25.457Z,9.70
2018-09-24T20:11:00.141Z,9.80
2018-09-24T20:13:34.388Z,9.90
2018-09-24T20:16:08.216Z,9.90
2018-09-24T20:18:43.787Z,10.00
2018-09-24T20:21:17.816Z,10.00
2018-09-24T20:23:55.428Z,10.00
2018-09-24T20:26:29.716Z,9.90
2018-09-24T20:29:04.050Z,9.70
2018-09-24T20:31:40.297Z,9.60
2018-09-24T20:34:14.378Z,9.40
2018-09-24T20:36:48.188Z,9.20
2018-09-24T20:39:22.260Z,8.90
2018-09-24T20:41:56.138Z,8.70
2018-09-24T20:44:30.055Z,8.60
2018-09-24T20:47:04.050Z,8.70
2018-09-24T20:49:38.077Z,8.70
2018-09-24T20:52:11.979Z,8.80
2018-09-24T20:54:45.838Z,8.80
2018-09-24T20:57:19.819Z,9.00
2018-09-24T20:59:53.790Z,8.80
2018-09-24T21:02:27.938Z,8.70
2018-09-24T21:05:02.006Z,8.60
2018-09-24T21:07:36.019Z,8.60
2018-09-24T21:10:10.530Z,8.40
2018-09-24T21:12:44.316Z,8.50
2018-09-24T21:15:18.229Z,8.30
2018-09-24T21:17:52.044Z,8.10
2018-09-24T21:20:25.944Z,8.00
2018-09-24T21:22:59.939Z,7.90
2018-09-24T21:25:33.775Z,7.80
2018-09-24T21:28:07.707Z,7.60
2018-09-24T21:30:41.682Z,7.40
2018-09-24T21:33:15.749Z,7.30
2018-09-24T21:35:49.860Z,7.20
2018-09-24T21:38:23.651Z,7.10
2018-09-24T21:40:57.671Z,6.80
2018-09-24T21:43:31.658Z,6.80
2018-09-24T21:46:05.631Z,6.60
2018-09-24T21:48:39.954Z,6.60
2018-09-24T21:51:13.784Z,6.40
2018-09-24T21:53:47.893Z,6.40
2018-09-24T21:56:21.890Z,6.40
2018-09-24T21:58:56.039Z,6.30
2018-09-24T22:01:30.124Z,6.10
2018-09-24T22:04:04.213Z,6.00
2018-09-24T22:06:38.439Z,6.00
2018-09-24T22:09:14.140Z,5.90
2018-09-24T22:11:48.690Z,5.80
2018-09-24T22:14:23.447Z,5.80
2018-09-24T22:16:57.517Z,5.80
2018-09-24T22:19:31.564Z,5.60
2018-09-24T22:22:05.763Z,5.50
2018-09-24T22:24:39.995Z,5.50
2018-09-24T22:27:14.107Z,5.40
2018-09-24T22:29:48.200Z,5.20
2018-09-24T22:32:22.748Z,5.20
2018-09-24T22:34:56.907Z,5.20
2018-09-24T22:37:31.467Z,5.20
2018-09-24T22:40:05.555Z,5.20
2018-09-24T22:42:39.849Z,5.20
2018-09-24T22:45:14.004Z,5.10
2018-09-24T22:47:48.211Z,5.20
2018-09-24T22:50:22.834Z,5.20
2018-09-24T22:52:58.423Z,5.30
2018-09-24T22:55:32.975Z,5.40
2018-09-24T22:58:07.091Z,5.50
2018-09-24T23:00:41.170Z,5.30
2018-09-24T23:03:15.371Z,5.20
2018-09-24T23:05:49.498Z,5.10
2018-09-24T23:08:23.647Z,5.10
2018-09-24T23:10:57.730Z,5.20
2018-09-24T23:13:31.891Z,5.20
2018-09-24T23:16:05.931Z,5.10
2018-09-24T23:18:40.139Z,5.10
2018-09-24T23:21:14.791Z,5.00
2018-09-24T23:23:49.212Z,5.00
2018-09-24T23:26:24.772Z,5.00
2018-09-24T23:28:59.939Z,5.00
2018-09-24T23:31:34.139Z,5.10
2018-09-24T23:34:08.190Z,5.00
2018-09-24T23:36:42.410Z,5.00
2018-09-24T23:39:16.519Z,5.00
2018-09-24T23:41:50.509Z,5.00
2018-09-24T23:44:24.631Z,5.00
2018-09-24T23:46:58.631Z,5.00
2018-09-24T23:49:32.765Z,5.00
2018-09-24T23:52:06.929Z,5.00
2018-09-24T23:54:41.059Z,4.90
2018-09-24T23:57:16.488Z,4.90
2018-09-24T23:59:52.053Z,4.80
